New Hampton, Missouri
Current Conditions -  °F | °C
As of 11:53 PM on Thursday 27 Nov 2014 (Local Time) from KLWD Reporting Station
Clear Clear  
Wind Chill: 16°   Ceiling: Unl
Heat Index: 23°   Visibility: 10mi
Dew Point: 18°   Wind: 6mph
Humidity: 81%   Direction: 130°SE
Pressure: 30.26"   Gusts: NA
Location:  40.26°N, 94.2°W
Report Text: KLWD 280553Z AUTO 13005KT 10SM CLR M05/M08 A3026 RMK AO2 SLP264 T10501078 11044 21067 410441111 55020
Loading
Personal Weather Stations






























Interactive Weather Map New forecast layout! Learn more

10-Day Weather Forecast

Advertisements
Track Severe Weather on mobile